Time;durP1;ratioP1;P1;durP2;ratioP2;P2;SDS_P1;SDS_P2;PMS_P1;PMS_P2;Temp;Humidity;BMP_temperature;BMP_pressure;BME280_temperature;BME280_humidity;BME280_pressure;Samples;Min_cycle;Max_cycle;Signal;HPM_P1;HPM_P2
2022/09/18 00:01:28;;;;;;;0.10;0.10;;;;;;;9.14;88.01;98718.16;5021390;28;20509;-64
2022/09/18 00:03:56;;;;;;;;;;;;;;;9.12;88.26;98714.88;5025002;28;20156;-66
2022/09/18 00:06:24;;;;;;;0.10;0.10;;;;;;;9.09;88.14;98719.00;5022288;28;20399;-65
2022/09/18 00:08:52;;;;;;;0.10;0.10;;;;;;;9.08;88.32;98712.72;5022622;28;20471;-67
2022/09/18 00:11:20;;;;;;;0.10;0.10;;;;;;;9.02;88.25;98713.09;5024744;28;20655;-66
2022/09/18 00:13:48;;;;;;;0.13;0.13;;;;;;;9.06;88.34;98723.13;5019160;28;20123;-66
2022/09/18 00:16:15;;;;;;;0.10;0.10;;;;;;;9.07;88.68;98711.13;5024255;28;20401;-65
2022/09/18 00:18:41;;;;;;;0.55;0.15;;;;;;;9.06;88.50;98708.69;5004396;28;20046;-65
2022/09/18 00:21:11;;;;;;;0.60;0.10;;;;;;;9.05;88.70;98698.88;5004823;28;20512;-64
2022/09/18 00:23:37;;;;;;;0.38;0.15;;;;;;;9.05;88.76;98699.69;5005465;28;20049;-67
2022/09/18 00:26:05;;;;;;;0.20;0.13;;;;;;;9.04;88.80;98700.78;5025009;28;20059;-66
2022/09/18 00:28:31;;;;;;;0.10;0.10;;;;;;;9.05;88.73;98707.03;5024096;28;20056;-65
2022/09/18 00:31:04;;;;;;;0.10;0.10;;;;;;;9.04;89.01;98705.41;5007667;28;20080;-65
2022/09/18 00:33:30;;;;;;;0.10;0.10;;;;;;;9.02;89.05;98697.56;5026026;28;20099;-65
2022/09/18 00:35:59;;;;;;;0.20;0.20;;;;;;;9.04;89.25;98708.16;5009543;28;20045;-66
2022/09/18 00:38:25;;;;;;;0.10;0.10;;;;;;;9.03;89.33;98704.63;5026771;28;20504;-66
2022/09/18 00:40:51;;;;;;;0.30;0.15;;;;;;;9.02;89.21;98699.44;5024680;28;20056;-66
2022/09/18 00:43:19;;;;;;;0.10;0.10;;;;;;;8.98;89.29;98692.97;5027330;28;20041;-65
2022/09/18 00:45:50;;;;;;;0.10;0.10;;;;;;;8.96;89.47;98704.16;5011446;28;20149;-68
2022/09/18 00:48:18;;;;;;;0.10;0.10;;;;;;;8.95;89.61;98713.44;5008678;28;20132;-66
2022/09/18 00:50:45;;;;;;;0.10;0.10;;;;;;;8.93;89.70;98705.56;5007405;28;20061;-67
2022/09/18 00:53:11;;;;;;;0.10;0.10;;;;;;;8.93;89.49;98707.47;5016087;28;20092;-66
2022/09/18 00:55:37;;;;;;;0.10;0.10;;;;;;;8.91;89.73;98707.78;5005035;28;20045;-65
2022/09/18 00:58:04;;;;;;;0.10;0.10;;;;;;;8.89;89.74;98700.97;5005800;28;20048;-65
2022/09/18 01:00:31;;;;;;;0.10;0.10;;;;;;;8.84;89.90;98688.22;4991667;28;20521;-65
2022/09/18 01:03:00;;;;;;;0.10;0.10;;;;;;;8.83;90.00;98700.22;4991258;28;20052;-66
2022/09/18 01:05:46;;;;;;;0.15;0.10;;;;;;;8.78;90.23;98700.28;5006422;28;20046;-66
2022/09/18 01:08:27;;;;;;;0.10;0.10;;;;;;;8.72;90.42;98704.16;4988233;28;20140;-66
2022/09/18 01:11:03;;;;;;;0.10;0.10;;;;;;;8.67;90.80;98702.31;5004720;28;20046;-66
2022/09/18 01:13:35;;;;;;;0.10;0.10;;;;;;;8.64;90.90;98700.97;4988137;28;20293;-66
2022/09/18 01:16:07;;;;;;;0.10;0.10;;;;;;;8.64;90.98;98697.41;5004316;28;20804;-66
2022/09/18 01:18:41;;;;;;;0.10;0.10;;;;;;;8.56;91.09;98690.69;4971334;28;20467;-65
2022/09/18 01:21:12;;;;;;;0.10;0.10;;;;;;;8.58;91.40;98693.13;4988315;28;20421;-66
2022/09/18 01:24:02;;;;;;;0.10;0.10;;;;;;;8.52;91.59;98708.72;4987548;28;20297;-65
2022/09/18 01:26:43;;;;;;;0.20;0.20;;;;;;;8.45;91.66;98714.47;4987367;28;20069;-65
2022/09/18 01:29:16;;;;;;;0.10;0.10;;;;;;;8.39;91.95;98715.63;4987272;28;20061;-66
2022/09/18 01:31:48;;;;;;;0.10;0.10;;;;;;;8.32;92.18;98709.69;4974213;28;20052;-65
2022/09/18 01:34:21;;;;;;;0.20;0.20;;;;;;;8.32;92.77;98717.88;5005287;28;20041;-65
2022/09/18 01:36:53;;;;;;;0.10;0.10;;;;;;;8.32;92.87;98712.41;4989370;28;20038;-65
2022/09/18 01:39:26;;;;;;;0.10;0.10;;;;;;;8.26;92.76;98714.38;4988316;28;20587;-65
2022/09/18 01:41:53;;;;;;;0.10;0.10;;;;;;;8.26;93.31;98713.56;5005827;28;20064;-66
2022/09/18 01:44:28;;;;;;;0.10;0.10;;;;;;;8.25;93.46;98711.94;4969383;28;20077;-67
2022/09/18 01:46:59;;;;;;;0.10;0.10;;;;;;;8.21;93.37;98715.25;4986888;28;20046;-66
2022/09/18 01:49:32;;;;;;;0.10;0.10;;;;;;;8.15;93.68;98708.19;4972620;28;20099;-67
2022/09/18 01:52:04;;;;;;;0.10;0.10;;;;;;;8.17;93.77;98714.16;4989128;28;20046;-66
2022/09/18 01:54:36;;;;;;;0.13;0.13;;;;;;;8.15;93.85;98719.09;4988278;28;20042;-66
2022/09/18 01:57:09;;;;;;;0.10;0.10;;;;;;;8.15;94.14;98721.81;5003362;28;20054;-65
2022/09/18 01:59:42;;;;;;;0.10;0.10;;;;;;;8.12;94.15;98727.84;4989052;28;20473;-66
2022/09/18 02:02:16;;;;;;;0.10;0.10;;;;;;;8.13;94.25;98723.22;4977297;28;20103;-65
2022/09/18 02:04:46;;;;;;;0.10;0.10;;;;;;;8.07;94.21;98717.00;5005865;28;20123;-65
2022/09/18 02:07:18;;;;;;;0.10;0.10;;;;;;;8.03;94.29;98730.34;4965243;28;20042;-66
2022/09/18 02:09:45;;;;;;;0.10;0.10;;;;;;;8.02;94.47;98728.72;4969859;28;20046;-66
2022/09/18 02:12:17;;;;;;;0.10;0.10;;;;;;;8.00;94.76;98732.81;4950931;28;20417;-66
2022/09/18 02:14:47;;;;;;;0.10;0.10;;;;;;;7.98;94.70;98726.84;4966072;28;20054;-66
2022/09/18 02:17:42;;;;;;;0.10;0.10;;;;;;;7.97;95.00;98736.94;4999810;28;20186;-66
2022/09/18 02:20:14;;;;;;;0.10;0.10;;;;;;;7.95;95.14;98718.16;5004065;28;20050;-66
2022/09/18 02:22:44;;;;;;;0.10;0.10;;;;;;;7.91;95.11;98721.72;4954292;28;20050;-65
2022/09/18 02:25:14;;;;;;;0.32;0.10;;;;;;;7.89;95.17;98729.38;4988285;28;20164;-65
2022/09/18 02:27:42;;;;;;;0.15;0.15;;;;;;;7.86;95.45;98727.22;4990688;28;20539;-66
2022/09/18 02:30:11;;;;;;;0.10;0.10;;;;;;;7.78;95.54;98718.56;5001406;28;20065;-67
2022/09/18 02:32:39;;;;;;;0.20;0.20;;;;;;;7.83;95.72;98731.31;5024162;28;20048;-65
2022/09/18 02:35:07;;;;;;;0.10;0.10;;;;;;;7.81;95.93;98719.91;5007136;28;20052;-65
2022/09/18 02:37:44;;;;;;;0.10;0.10;;;;;;;7.73;95.73;98717.78;5020530;28;20099;-65
2022/09/18 02:40:27;;;;;;;0.00;0.00;;;;;;;7.76;95.93;98731.63;5007124;28;20053;-65
2022/09/18 02:43:07;;;;;;;0.20;0.20;;;;;;;7.72;96.10;98727.03;5007783;28;20472;-66
2022/09/18 02:45:43;;;;;;;0.10;0.10;;;;;;;7.64;96.22;98734.69;5005548;28;20053;-65
2022/09/18 02:48:24;;;;;;;0.10;0.10;;;;;;;7.64;96.50;98745.59;5014931;28;20144;-64
2022/09/18 02:50:57;;;;;;;0.10;0.10;;;;;;;7.65;96.81;98743.69;5002486;28;20058;-66
2022/09/18 02:53:29;;;;;;;0.10;0.10;;;;;;;7.63;96.76;98752.13;4986212;28;20041;-65
2022/09/18 02:56:01;;;;;;;0.10;0.10;;;;;;;7.63;96.80;98749.41;4984921;28;20053;-65
2022/09/18 02:58:38;;;;;;;0.10;0.10;;;;;;;7.61;97.03;98748.03;4983528;28;20052;-64
2022/09/18 03:01:07;;;;;;;0.15;0.15;;;;;;;7.60;97.35;98752.69;4969806;28;20050;-65
2022/09/18 03:03:37;;;;;;;0.10;0.10;;;;;;;7.62;97.24;98746.94;4986771;28;20292;-65
2022/09/18 03:06:06;;;;;;;0.20;0.20;;;;;;;7.58;97.33;98733.13;4987779;28;20145;-65
2022/09/18 03:08:34;;;;;;;0.10;0.10;;;;;;;7.61;97.37;98740.72;4985782;28;20058;-66
2022/09/18 03:11:00;;;;;;;0.10;0.10;;;;;;;7.60;97.33;98743.69;4972255;28;20510;-65
2022/09/18 03:13:27;;;;;;;0.10;0.10;;;;;;;7.58;97.42;98735.84;4987884;28;20054;-66
2022/09/18 03:15:54;;;;;;;0.10;0.10;;;;;;;7.55;97.42;98746.47;5002897;28;20057;-66
2022/09/18 03:18:21;;;;;;;0.20;0.20;;;;;;;7.55;97.58;98746.47;4985780;28;20053;-66
2022/09/18 03:20:48;;;;;;;0.10;0.10;;;;;;;7.55;97.66;98746.47;4984261;28;20387;-65
2022/09/18 03:23:14;;;;;;;0.10;0.10;;;;;;;7.55;97.71;98744.53;4985012;28;20148;-65
2022/09/18 03:25:41;;;;;;;;;;;;;;;7.57;97.89;98747.00;4986020;28;20051;-65
2022/09/18 03:28:08;;;;;;;0.10;0.10;;;;;;;7.62;97.91;98746.94;4985036;28;20431;-65
2022/09/18 03:30:37;;;;;;;0.10;0.10;;;;;;;7.61;97.71;98745.31;4984554;28;20046;-66
2022/09/18 03:33:03;;;;;;;0.10;0.10;;;;;;;7.61;97.79;98746.16;4985418;28;20056;-65
2022/09/18 03:35:32;;;;;;;0.10;0.10;;;;;;;7.62;97.82;98741.50;4984682;28;20432;-65
2022/09/18 03:37:58;;;;;;;0.10;0.10;;;;;;;7.63;97.79;98748.56;4986571;28;20153;-66
2022/09/18 03:40:28;;;;;;;0.10;0.10;;;;;;;7.69;97.69;98747.47;4970800;28;20041;-66
2022/09/18 03:42:55;;;;;;;0.10;0.10;;;;;;;7.75;97.61;98754.50;4985881;28;20058;-64
2022/09/18 03:45:24;;;;;;;0.10;0.10;;;;;;;7.79;97.56;98746.59;5005283;28;20052;-65
2022/09/18 03:47:50;;;;;;;0.10;0.10;;;;;;;7.84;97.33;98752.00;5003934;28;20715;-66
2022/09/18 03:50:16;;;;;;;0.10;0.10;;;;;;;7.89;97.30;98745.69;4970073;28;20152;-65
2022/09/18 03:52:44;;;;;;;0.20;0.13;;;;;;;7.94;97.12;98745.66;4970553;28;20065;-65
2022/09/18 03:55:28;;;;;;;0.10;0.10;;;;;;;7.99;97.10;98742.91;4983612;28;20043;-65
2022/09/18 03:58:17;;;;;;;0.30;0.17;;;;;;;8.03;96.71;98735.81;4943557;28;20057;-64
2022/09/18 04:01:04;;;;;;;0.10;0.10;;;;;;;8.06;96.40;98732.50;4979581;28;20100;-66
2022/09/18 04:03:39;;;;;;;0.10;0.10;;;;;;;8.06;96.14;98732.50;4976462;28;20034;-65
2022/09/18 04:06:06;;;;;;;0.10;0.10;;;;;;;8.03;95.80;98733.09;5003303;28;20313;-66
2022/09/18 04:09:12;;;;;;;0.15;0.15;;;;;;;7.99;95.58;98731.22;4980104;28;20511;-65
2022/09/18 04:11:44;;;;;;;0.17;0.17;;;;;;;8.00;95.48;98730.09;5024317;28;20053;-63
2022/09/18 04:14:11;;;;;;;0.10;0.10;;;;;;;8.01;95.34;98729.84;4990975;28;20095;-64
2022/09/18 04:16:37;;;;;;;0.10;0.10;;;;;;;8.02;95.21;98731.47;4990198;28;20046;-65
2022/09/18 04:19:03;;;;;;;0.10;0.10;;;;;;;8.02;95.28;98731.47;5005122;28;20100;-66
2022/09/18 04:21:29;;;;;;;0.10;0.10;;;;;;;8.06;95.15;98729.00;4965716;28;20045;-66
2022/09/18 04:23:57;;;;;;;0.10;0.10;;;;;;;8.13;94.93;98739.56;4983779;28;20045;-66
2022/09/18 04:26:25;;;;;;;0.20;0.20;;;;;;;8.22;95.05;98743.28;4986068;28;20300;-65
2022/09/18 04:28:55;;;;;;;0.10;0.10;;;;;;;8.43;94.59;98741.19;4987153;28;20140;-66
2022/09/18 04:31:21;;;;;;;0.10;0.10;;;;;;;8.57;93.89;98732.38;4989648;28;20045;-66
2022/09/18 04:33:47;;;;;;;0.35;0.20;;;;;;;8.68;93.26;98730.38;4966774;28;20049;-66
2022/09/18 04:36:14;;;;;;;0.10;0.10;;;;;;;8.79;92.97;98738.13;4985518;28;20531;-66
2022/09/18 04:38:40;;;;;;;0.10;0.10;;;;;;;8.89;92.35;98729.03;4986051;28;20046;-65
2022/09/18 04:41:06;;;;;;;0.20;0.20;;;;;;;9.02;92.11;98741.19;5005030;28;20537;-66
2022/09/18 04:43:34;;;;;;;0.20;0.20;;;;;;;9.22;91.15;98731.94;4983835;28;20567;-66
2022/09/18 04:45:59;;;;;;;0.20;0.20;;;;;;;9.41;90.24;98733.06;4981812;28;20108;-66
2022/09/18 04:48:25;;;;;;;0.20;0.20;;;;;;;9.55;89.50;98735.91;4984793;28;20456;-65
2022/09/18 04:50:52;;;;;;;0.20;0.20;;;;;;;9.69;88.96;98744.16;4968067;28;20157;-65
2022/09/18 04:53:20;;;;;;;;;;;;;;;9.78;88.05;98734.19;4985191;28;20050;-66
2022/09/18 04:55:47;;;;;;;0.10;0.10;;;;;;;9.82;87.57;98737.13;5001042;28;19925;-66
2022/09/18 04:58:16;;;;;;;0.10;0.10;;;;;;;9.82;87.10;98740.69;4983680;28;20116;-65
2022/09/18 05:00:48;;;;;;;0.20;0.20;;;;;;;9.88;86.84;98735.97;4967486;28;20050;-65
2022/09/18 05:03:14;;;;;;;0.10;0.10;;;;;;;9.92;86.79;98735.09;5002886;28;20052;-65
2022/09/18 05:05:41;;;;;;;0.10;0.10;;;;;;;9.95;86.26;98730.94;4985746;28;20132;-66
2022/09/18 05:08:08;;;;;;;0.10;0.10;;;;;;;9.95;86.19;98741.06;4986711;28;20046;-66
2022/09/18 05:10:34;;;;;;;0.10;0.10;;;;;;;9.86;86.28;98736.25;4984729;28;20129;-65
2022/09/18 05:13:01;;;;;;;0.20;0.20;;;;;;;9.86;86.62;98725.31;4971618;28;20050;-66
2022/09/18 05:15:28;;;;;;;0.10;0.10;;;;;;;9.90;86.74;98731.81;4989250;28;20042;-67
2022/09/18 05:18:00;;;;;;;0.20;0.20;;;;;;;9.95;86.24;98730.94;4989635;28;20092;-67
2022/09/18 05:20:26;;;;;;;0.20;0.20;;;;;;;10.05;86.31;98727.22;4969378;28;20484;-66
2022/09/18 05:22:54;;;;;;;;;;;;;;;10.18;86.02;98722.94;4984866;28;20544;-66
2022/09/18 05:25:22;;;;;;;0.10;0.10;;;;;;;10.31;85.00;98724.09;4989108;28;20036;-65
2022/09/18 05:27:55;;;;;;;0.17;0.17;;;;;;;10.38;84.54;98720.97;4973321;28;20100;-65
2022/09/18 05:30:23;;;;;;;0.10;0.10;;;;;;;10.46;83.82;98718.38;4990453;28;20050;-66
2022/09/18 05:32:55;;;;;;;0.20;0.20;;;;;;;10.57;83.52;98712.75;4987564;28;20046;-66
2022/09/18 05:35:25;;;;;;;0.20;0.20;;;;;;;10.67;83.12;98720.75;4985082;28;20061;-66
2022/09/18 05:37:51;;;;;;;0.20;0.20;;;;;;;10.88;82.74;98721.16;4987829;28;20119;-67
2022/09/18 05:40:18;;;;;;;0.20;0.20;;;;;;;11.06;81.97;98715.91;4988790;28;20081;-66
2022/09/18 05:42:45;;;;;;;0.10;0.10;;;;;;;11.23;81.39;98700.78;4973053;28;20041;-66
2022/09/18 05:45:12;;;;;;;0.20;0.20;;;;;;;11.27;80.94;98699.06;4984516;28;20049;-67
2022/09/18 05:47:38;;;;;;;0.52;0.25;;;;;;;11.09;80.69;98698.91;4973213;28;20041;-66
2022/09/18 05:50:05;;;;;;;0.20;0.20;;;;;;;10.98;81.32;98695.53;4987099;28;20066;-65
2022/09/18 05:52:33;;;;;;;0.20;0.20;;;;;;;10.83;81.92;98690.38;4989189;28;20049;-65
2022/09/18 05:54:59;;;;;;;0.10;0.10;;;;;;;10.73;82.55;98692.22;4971521;28;20144;-66
2022/09/18 05:57:26;;;;;;;0.10;0.10;;;;;;;10.68;82.59;98694.22;4988477;28;20053;-65
2022/09/18 05:59:52;;;;;;;0.30;0.20;;;;;;;10.63;82.71;98692.38;4987093;28;20533;-66
2022/09/18 06:02:18;;;;;;;0.20;0.20;;;;;;;10.59;83.06;98689.44;4986898;28;20060;-65
2022/09/18 06:05:01;;;;;;;0.10;0.10;;;;;;;10.63;83.32;98698.69;4988342;28;20508;-65
2022/09/18 06:07:30;;;;;;;0.10;0.10;;;;;;;10.80;82.75;98693.72;4987416;28;20060;-65
2022/09/18 06:09:58;;;;;;;0.20;0.20;;;;;;;10.94;82.39;98689.06;4989359;28;20045;-66
2022/09/18 06:12:24;;;;;;;0.55;0.17;;;;;;;11.12;81.51;98705.66;4988149;28;20589;-66
2022/09/18 06:14:50;;;;;;;0.30;0.30;;;;;;;11.18;80.97;98701.72;5005850;28;20149;-66
2022/09/18 06:17:17;;;;;;;0.30;0.30;;;;;;;11.42;80.16;98698.75;4988987;28;20059;-65
2022/09/18 06:19:44;;;;;;;0.20;0.20;;;;;;;11.86;79.14;98698.28;4988212;28;20143;-65
2022/09/18 06:22:10;;;;;;;0.30;0.30;;;;;;;12.36;76.88;98694.63;4988254;28;20053;-65
2022/09/18 06:24:36;;;;;;;0.28;0.28;;;;;;;12.87;75.11;98692.47;4985614;28;20049;-65
2022/09/18 06:27:09;;;;;;;0.45;0.30;;;;;;;13.38;72.91;98697.59;4988475;28;20042;-65
2022/09/18 06:29:37;;;;;;;0.20;0.20;;;;;;;13.57;71.62;98691.00;5006674;28;20104;-65
2022/09/18 06:32:25;;;;;;;0.30;0.30;;;;;;;13.48;71.46;98693.75;5006649;28;20562;-65
2022/09/18 06:34:52;;;;;;;0.25;0.25;;;;;;;13.44;71.77;98688.13;4990208;28;20052;-65
2022/09/18 06:37:18;;;;;;;0.25;0.25;;;;;;;13.42;71.72;98693.06;5005132;28;20052;-65
2022/09/18 06:40:08;;;;;;;0.20;0.20;;;;;;;13.52;71.55;98688.44;4998721;28;20050;-66
2022/09/18 06:43:05;;;;;;;0.20;0.20;;;;;;;13.40;71.05;98692.59;4977384;28;20611;-65
2022/09/18 06:45:48;;;;;;;0.30;0.30;;;;;;;13.33;71.77;98686.78;4987151;28;20144;-66
2022/09/18 06:48:14;;;;;;;0.20;0.20;;;;;;;13.33;71.79;98695.81;4985832;28;20101;-66
2022/09/18 06:50:40;;;;;;;0.45;0.30;;;;;;;13.46;71.43;98690.53;4987324;28;20537;-66
2022/09/18 06:53:06;;;;;;;0.28;0.28;;;;;;;13.57;71.20;98696.50;4986452;28;20056;-65
2022/09/18 06:55:38;;;;;;;0.30;0.30;;;;;;;13.64;70.91;98693.28;4970888;28;20060;-65
2022/09/18 06:58:06;;;;;;;1.35;0.40;;;;;;;13.69;70.70;98695.88;5005747;28;20042;-65
2022/09/18 07:00:32;;;;;;;0.30;0.30;;;;;;;13.86;70.72;98706.06;5006493;28;20080;-65
2022/09/18 07:03:01;;;;;;;0.30;0.30;;;;;;;14.00;70.06;98700.41;4970588;28;20042;-65
2022/09/18 07:05:45;;;;;;;0.40;0.40;;;;;;;14.08;69.58;98698.78;5005159;28;20607;-66
2022/09/18 07:08:19;;;;;;;0.30;0.30;;;;;;;14.10;69.29;98693.78;4986729;28;20451;-65
2022/09/18 07:10:47;;;;;;;0.40;0.40;;;;;;;14.07;69.60;98694.44;4986902;28;20042;-66
2022/09/18 07:13:15;;;;;;;0.30;0.30;;;;;;;14.32;68.74;98687.25;4969381;28;20057;-66
2022/09/18 07:15:45;;;;;;;0.40;0.40;;;;;;;14.73;67.14;98687.81;4985847;28;20537;-66
2022/09/18 07:18:12;;;;;;;0.40;0.40;;;;;;;15.15;65.76;98687.13;4984888;28;20112;-67
2022/09/18 07:20:38;;;;;;;0.40;0.40;;;;;;;15.53;64.03;98690.94;4985744;28;20049;-66
2022/09/18 07:23:04;;;;;;;0.30;0.30;;;;;;;15.62;62.95;98666.06;4985473;28;20513;-66
2022/09/18 07:25:40;;;;;;;0.50;0.50;;;;;;;16.02;62.24;98679.38;4968555;28;20080;-66
2022/09/18 07:28:09;;;;;;;0.30;0.30;;;;;;;16.11;61.42;98665.50;4980627;28;20060;-66
2022/09/18 07:30:44;;;;;;;0.40;0.40;;;;;;;15.98;61.92;98668.22;4980637;28;20048;-66
2022/09/18 07:33:10;;;;;;;0.30;0.30;;;;;;;15.82;62.37;98670.75;4999440;28;20120;-66
2022/09/18 07:35:42;;;;;;;0.38;0.38;;;;;;;15.58;62.94;98665.94;4961865;28;20145;-66
2022/09/18 07:38:08;;;;;;;0.40;0.40;;;;;;;15.49;63.35;98648.69;4984410;28;20413;-66
2022/09/18 07:40:53;;;;;;;0.40;0.40;;;;;;;16.19;61.91;98655.53;5001249;28;20061;-66
2022/09/18 07:43:33;;;;;;;0.40;0.40;;;;;;;16.72;60.04;98645.50;4833385;28;10001350;-66
2022/09/18 07:46:01;;;;;;;0.50;0.40;;;;;;;16.94;58.91;98632.41;4973787;28;20270;-66
2022/09/18 07:48:30;;;;;;;0.43;0.43;;;;;;;17.48;57.70;98637.97;4993345;28;20034;-66
2022/09/18 07:51:06;;;;;;;0.77;0.50;;;;;;;17.86;56.25;98642.22;4979348;28;20065;-66
2022/09/18 07:53:36;;;;;;;0.50;0.50;;;;;;;18.13;55.63;98637.84;4961929;28;20170;-66
2022/09/18 07:56:06;;;;;;;0.40;0.40;;;;;;;18.16;55.39;98638.28;4982248;28;20090;-66
2022/09/18 07:58:32;;;;;;;0.40;0.40;;;;;;;18.33;54.82;98626.09;4979054;28;20146;-66
2022/09/18 08:01:05;;;;;;;0.40;0.40;;;;;;;18.44;54.03;98618.91;4946323;28;20102;-66
2022/09/18 08:03:37;;;;;;;0.73;0.50;;;;;;;18.94;52.84;98615.72;4945569;28;20042;-65
2022/09/18 08:06:26;;;;;;;0.50;0.50;;;;;;;19.45;50.99;98609.38;4944233;28;20354;-65
2022/09/18 08:09:10;;;;;;;0.52;0.50;;;;;;;19.67;50.25;98605.06;4943146;28;20047;-66
2022/09/18 08:11:54;;;;;;;0.40;0.40;;;;;;;19.80;50.16;98602.94;4975026;28;20088;-66
2022/09/18 08:14:43;;;;;;;0.30;0.30;;;;;;;19.49;50.52;98599.16;4985504;28;20516;-66
2022/09/18 08:17:46;;;;;;;1.02;0.50;;;;;;;18.44;53.05;98596.75;4967076;28;20443;-66
2022/09/18 08:20:29;;;;;;;0.30;0.30;;;;;;;17.69;56.06;98602.66;4985213;28;20208;-66
2022/09/18 08:23:11;;;;;;;0.50;0.50;;;;;;;17.30;57.42;98596.81;5000192;28;20065;-66
2022/09/18 08:25:40;;;;;;;0.40;0.40;;;;;;;17.13;58.11;98587.63;4985806;28;20050;-66
2022/09/18 08:28:06;;;;;;;0.50;0.50;;;;;;;17.07;58.21;98574.41;4987109;28;20141;-66
2022/09/18 08:30:42;;;;;;;0.75;0.50;;;;;;;16.98;58.42;98574.53;4984125;28;20087;-66
2022/09/18 08:33:12;;;;;;;0.50;0.50;;;;;;;17.11;58.46;98565.09;4981557;28;20501;-66
2022/09/18 08:35:39;;;;;;;0.80;0.40;;;;;;;17.56;56.97;98566.00;4969132;28;20150;-66
2022/09/18 08:38:31;;;;;;;0.40;0.40;;;;;;;17.74;56.59;98559.34;4996792;28;20046;-66
2022/09/18 08:41:31;;;;;;;0.90;0.40;;;;;;;17.56;56.86;98552.19;4975666;28;20053;-66
2022/09/18 08:44:04;;;;;;;0.45;0.45;;;;;;;17.50;57.30;98555.56;5003371;28;20049;-66
2022/09/18 08:46:36;;;;;;;0.38;0.38;;;;;;;17.45;57.37;98542.78;5002352;28;20050;-66
2022/09/18 08:49:21;;;;;;;0.40;0.40;;;;;;;17.32;57.42;98542.00;4977900;28;20141;-66
2022/09/18 08:51:54;;;;;;;0.40;0.40;;;;;;;17.23;57.81;98541.38;4986608;28;20062;-66
2022/09/18 08:54:41;;;;;;;0.35;0.35;;;;;;;17.21;58.07;98546.44;4971070;28;20056;-66
2022/09/18 08:57:34;;;;;;;0.40;0.40;;;;;;;17.26;57.62;98535.97;4988915;28;20531;-66
2022/09/18 09:00:21;;;;;;;0.50;0.50;;;;;;;17.57;56.86;98533.63;4988860;28;20062;-66
2022/09/18 09:03:00;;;;;;;0.40;0.40;;;;;;;17.57;57.00;98537.22;4972053;28;20479;-66
2022/09/18 09:05:34;;;;;;;0.40;0.40;;;;;;;17.46;56.82;98535.28;5006887;28;20073;-66
2022/09/18 09:08:19;;;;;;;0.40;0.40;;;;;;;17.29;57.17;98545.47;4990422;28;20058;-66
2022/09/18 09:10:54;;;;;;;0.30;0.30;;;;;;;17.08;57.28;98540.94;4990358;28;20050;-66
2022/09/18 09:13:53;;;;;;;0.50;0.40;;;;;;;16.72;58.35;98534.31;4990049;28;20042;-66
2022/09/18 09:16:27;;;;;;;0.40;0.40;;;;;;;16.47;59.45;98530.75;4964490;28;20055;-66
2022/09/18 09:18:59;;;;;;;0.30;0.30;;;;;;;16.36;60.50;98527.66;4967824;28;20401;-68
2022/09/18 09:21:41;;;;;;;0.40;0.40;;;;;;;16.20;60.68;98528.34;4972641;28;20070;-69
2022/09/18 09:24:23;;;;;;;0.68;0.40;;;;;;;16.02;61.46;98525.81;5001349;28;20065;-66
2022/09/18 09:27:23;;;;;;;0.30;0.30;;;;;;;15.84;62.23;98516.91;4980419;28;20169;-67
2022/09/18 09:30:18;;;;;;;0.30;0.30;;;;;;;15.50;62.74;98501.56;4982221;28;20192;-67
2022/09/18 09:33:24;;;;;;;0.30;0.30;;;;;;;15.44;63.49;98511.97;4906691;29;20143;-67
2022/09/18 09:36:07;;;;;;;0.30;0.30;;;;;;;15.41;63.82;98515.41;4965613;28;20509;-67
2022/09/18 09:38:56;;;;;;;0.30;0.30;;;;;;;15.34;64.13;98496.69;5010607;28;20115;-66
2022/09/18 09:41:29;;;;;;;0.30;0.30;;;;;;;15.18;64.45;98510.25;5008911;28;20052;-65
2022/09/18 09:44:03;;;;;;;0.40;0.40;;;;;;;15.08;65.10;98492.22;5007706;28;20091;-65
2022/09/18 09:46:46;;;;;;;0.30;0.30;;;;;;;14.87;65.39;98506.78;4969711;28;20054;-65
2022/09/18 09:49:16;;;;;;;0.22;0.22;;;;;;;14.84;65.83;98498.38;4986393;28;20354;-66
2022/09/18 09:51:52;;;;;;;0.30;0.30;;;;;;;14.85;65.74;98487.06;5011746;28;20107;-65
2022/09/18 09:54:19;;;;;;;0.30;0.30;;;;;;;14.83;66.40;98483.03;5008519;28;20057;-65
2022/09/18 09:56:54;;;;;;;0.30;0.30;;;;;;;14.91;66.04;98484.91;5023796;28;20050;-66
2022/09/18 09:59:27;;;;;;;0.25;0.25;;;;;;;14.91;65.93;98478.59;4993666;28;20042;-66
2022/09/18 10:02:28;;;;;;;0.30;0.30;;;;;;;14.91;66.05;98471.16;4970711;28;20041;-66
2022/09/18 10:05:01;;;;;;;0.20;0.20;;;;;;;14.91;65.95;98465.66;5013184;28;20064;-65
2022/09/18 10:07:36;;;;;;;0.35;0.35;;;;;;;14.80;66.33;98472.69;4987511;28;20137;-65
2022/09/18 10:10:13;;;;;;;0.28;0.28;;;;;;;14.74;66.77;98469.34;4985633;28;20409;-65
2022/09/18 10:12:50;;;;;;;1.02;0.40;;;;;;;14.70;66.29;98466.41;4991441;28;20041;-65
2022/09/18 10:15:19;;;;;;;0.38;0.30;;;;;;;14.77;66.37;98471.41;4990178;28;20054;-66
2022/09/18 10:17:48;;;;;;;0.70;0.25;;;;;;;14.78;66.61;98466.72;5008781;28;20045;-67
2022/09/18 10:20:26;;;;;;;0.35;0.35;;;;;;;14.75;66.54;98459.94;4994921;28;20064;-65
2022/09/18 10:22:57;;;;;;;0.30;0.30;;;;;;;14.71;66.57;98458.97;4975703;28;20065;-65
2022/09/18 10:25:32;;;;;;;0.28;0.28;;;;;;;14.65;67.07;98457.53;5003019;28;20084;-65
2022/09/18 10:27:58;;;;;;;0.30;0.30;;;;;;;14.57;67.11;98454.53;4989007;28;20050;-65
2022/09/18 10:30:24;;;;;;;0.22;0.22;;;;;;;14.53;67.23;98444.53;5023104;28;20045;-65
2022/09/18 10:32:53;;;;;;;0.25;0.25;;;;;;;14.50;67.35;98439.72;5005755;28;20053;-66
2022/09/18 10:35:41;;;;;;;0.20;0.20;;;;;;;14.48;67.79;98436.50;5025451;28;20467;-65
2022/09/18 10:38:25;;;;;;;0.30;0.30;;;;;;;14.39;67.96;98431.84;4656762;28;10001232;-67
2022/09/18 10:40:53;;;;;;;0.20;0.20;;;;;;;14.29;68.47;98429.50;4964878;28;20410;-67
2022/09/18 10:43:20;;;;;;;0.20;0.20;;;;;;;14.25;68.66;98420.28;4966283;28;20516;-67
2022/09/18 10:45:53;;;;;;;0.30;0.30;;;;;;;14.20;68.74;98418.53;4985422;28;20056;-67
2022/09/18 10:48:30;;;;;;;0.20;0.20;;;;;;;14.20;68.70;98424.03;4987373;28;20127;-67
2022/09/18 10:51:01;;;;;;;0.20;0.20;;;;;;;14.21;69.17;98425.66;4983718;28;20058;-66
2022/09/18 10:53:37;;;;;;;0.20;0.20;;;;;;;14.23;69.19;98420.63;4984798;28;20149;-65
2022/09/18 10:56:20;;;;;;;0.45;0.40;;;;;;;14.24;68.79;98414.00;5019141;28;20691;-65
2022/09/18 10:58:50;;;;;;;0.20;0.20;;;;;;;14.25;69.15;98420.28;4987005;28;20406;-65
2022/09/18 11:01:19;;;;;;;0.20;0.20;;;;;;;14.21;69.21;98417.41;4971545;28;20045;-65
2022/09/18 11:04:01;;;;;;;0.20;0.20;;;;;;;14.17;69.70;98410.97;4976941;28;20392;-67
2022/09/18 11:06:33;;;;;;;0.20;0.20;;;;;;;14.14;69.74;98403.38;4953433;28;20369;-67
2022/09/18 11:09:10;;;;;;;0.20;0.20;;;;;;;14.17;70.65;98399.97;5019085;28;20114;-67
2022/09/18 11:11:45;;;;;;;0.20;0.20;;;;;;;14.22;70.25;98402.53;5008712;28;20053;-67
2022/09/18 11:14:23;;;;;;;0.20;0.20;;;;;;;14.28;70.18;98401.19;4993255;28;20050;-66
2022/09/18 11:16:59;;;;;;;0.20;0.20;;;;;;;14.31;70.13;98395.03;4990317;28;20535;-66
2022/09/18 11:19:31;;;;;;;0.20;0.20;;;;;;;14.33;70.62;98391.94;5006510;28;20136;-66
2022/09/18 11:22:03;;;;;;;0.30;0.30;;;;;;;14.25;71.01;98385.38;5008861;28;20566;-66
2022/09/18 11:24:34;;;;;;;0.20;0.20;;;;;;;14.20;70.74;98384.75;4998075;28;20428;-66
2022/09/18 11:27:20;;;;;;;0.20;0.20;;;;;;;14.14;71.57;98371.22;5000409;28;20181;-66
2022/09/18 11:29:47;;;;;;;0.25;0.25;;;;;;;14.16;72.27;98362.63;4969034;28;20050;-65
2022/09/18 11:32:19;;;;;;;0.30;0.30;;;;;;;14.24;72.10;98356.28;4987702;28;20477;-67
2022/09/18 11:34:54;;;;;;;0.20;0.20;;;;;;;14.22;72.27;98358.56;4987981;28;20050;-66
2022/09/18 11:37:30;;;;;;;0.30;0.30;;;;;;;14.16;72.93;98354.38;4966452;28;20495;-66
2022/09/18 11:40:00;;;;;;;0.20;0.20;;;;;;;13.97;74.04;98347.41;4976657;28;20053;-67
2022/09/18 11:42:30;;;;;;;0.30;0.30;;;;;;;13.85;74.91;98344.56;4981796;28;20057;-67
2022/09/18 11:45:08;;;;;;;0.20;0.20;;;;;;;13.78;75.28;98344.28;5001931;28;20041;-66
2022/09/18 11:47:41;;;;;;;0.30;0.30;;;;;;;13.69;75.80;98331.41;4969489;28;20135;-65
2022/09/18 11:50:13;;;;;;;0.20;0.20;;;;;;;13.70;75.68;98329.47;4972616;28;20162;-67
2022/09/18 11:52:42;;;;;;;0.20;0.20;;;;;;;13.70;75.90;98324.75;4985695;28;20421;-65
2022/09/18 11:55:21;;;;;;;0.20;0.20;;;;;;;13.69;76.12;98317.66;4986135;28;20080;-65
2022/09/18 11:57:53;;;;;;;0.20;0.20;;;;;;;13.68;76.35;98315.25;4986460;28;20168;-65
2022/09/18 12:00:21;;;;;;;0.20;0.20;;;;;;;13.65;76.65;98319.47;4985553;28;20529;-66
2022/09/18 12:03:01;;;;;;;0.20;0.20;;;;;;;13.63;77.37;98308.00;4984531;28;20049;-66
2022/09/18 12:05:46;;;;;;;0.28;0.28;;;;;;;13.61;77.23;98291.06;4986263;28;20049;-65